createdAt,value
2018-07-05T00:02:33.180Z,86.11
2018-07-05T00:05:13.123Z,85.75
2018-07-05T00:07:53.159Z,85.88
2018-07-05T00:10:33.103Z,86.49
2018-07-05T00:13:13.176Z,86.29
2018-07-05T00:15:53.165Z,85.98
2018-07-05T00:18:33.147Z,85.50
2018-07-05T00:21:13.073Z,85.16
2018-07-05T00:23:53.036Z,85.82
2018-07-05T00:26:33.104Z,85.39
2018-07-05T00:29:13.072Z,84.92
2018-07-05T00:31:53.078Z,84.08
2018-07-05T00:34:33.095Z,83.71
2018-07-05T00:37:13.065Z,84.42
2018-07-05T00:39:53.509Z,83.46
2018-07-05T00:42:33.489Z,83.91
2018-07-05T00:45:13.632Z,84.21
2018-07-05T00:47:53.525Z,84.31
2018-07-05T00:50:33.626Z,84.44
2018-07-05T00:53:13.608Z,85.11
2018-07-05T00:55:53.459Z,85.79
2018-07-05T00:58:33.534Z,85.99
2018-07-05T01:01:13.509Z,86.30
2018-07-05T01:03:53.458Z,86.30
2018-07-05T01:06:33.564Z,86.88
2018-07-05T01:09:13.724Z,86.46
2018-07-05T01:11:53.723Z,86.58
2018-07-05T01:14:33.725Z,85.99
2018-07-05T01:17:14.616Z,85.97
2018-07-05T01:19:54.645Z,86.05
2018-07-05T01:22:34.690Z,86.72
2018-07-05T01:25:14.573Z,87.10
2018-07-05T01:27:54.517Z,87.68
2018-07-05T01:30:34.496Z,87.07
2018-07-05T01:33:14.573Z,86.70
2018-07-05T01:35:54.746Z,86.07
2018-07-05T01:38:34.878Z,85.79
2018-07-05T01:41:15.177Z,85.81
2018-07-05T01:43:55.364Z,85.55
2018-07-05T01:46:35.460Z,85.39
2018-07-05T01:49:15.590Z,86.22
2018-07-05T01:51:55.641Z,86.49
2018-07-05T01:54:35.760Z,86.71
2018-07-05T01:57:15.812Z,86.56
2018-07-05T01:59:56.003Z,87.46
2018-07-05T02:02:36.158Z,87.21
2018-07-05T02:05:16.128Z,87.46
2018-07-05T02:07:56.105Z,87.49
2018-07-05T02:10:35.937Z,87.17
2018-07-05T02:13:15.904Z,86.65
2018-07-05T02:15:55.797Z,87.20
2018-07-05T02:18:35.988Z,87.27
2018-07-05T02:21:16.048Z,87.02
2018-07-05T02:23:56.096Z,86.69
2018-07-05T02:26:36.454Z,86.98
2018-07-05T02:29:16.569Z,87.15
2018-07-05T02:31:56.479Z,87.44
2018-07-05T02:34:36.454Z,87.70
2018-07-05T02:37:21.915Z,87.35
2018-07-05T02:40:01.792Z,87.16
2018-07-05T02:42:41.852Z,86.96
2018-07-05T02:45:21.867Z,86.50
2018-07-05T02:48:01.923Z,86.75
2018-07-05T02:50:42.000Z,86.46
2018-07-05T02:53:21.969Z,86.54
2018-07-05T02:56:01.994Z,86.11
2018-07-05T02:58:41.942Z,85.97
2018-07-05T03:01:21.996Z,85.89
2018-07-05T03:04:01.906Z,85.98
2018-07-05T03:06:41.914Z,85.99
2018-07-05T03:09:22.000Z,85.56
2018-07-05T03:12:02.084Z,85.09
2018-07-05T03:14:42.155Z,85.30
2018-07-05T03:17:22.090Z,85.08
2018-07-05T03:20:02.157Z,84.60
2018-07-05T03:22:43.084Z,84.93
2018-07-05T03:25:23.227Z,84.78
2018-07-05T03:28:03.273Z,84.14
2018-07-05T03:30:43.432Z,83.98
2018-07-05T03:33:23.750Z,83.95
2018-07-05T03:36:03.795Z,83.91
2018-07-05T03:38:43.816Z,83.31
2018-07-05T03:41:23.937Z,83.18
2018-07-05T03:44:04.068Z,83.48
2018-07-05T03:46:44.103Z,82.63
2018-07-05T03:49:24.095Z,83.60
2018-07-05T03:52:04.088Z,83.01
2018-07-05T03:54:44.133Z,82.56
2018-07-05T03:57:24.357Z,82.25
2018-07-05T04:00:04.551Z,82.05
2018-07-05T04:02:44.705Z,80.75
2018-07-05T04:05:24.579Z,81.18
2018-07-05T04:08:04.573Z,80.48
2018-07-05T04:10:44.624Z,80.28
2018-07-05T04:13:24.670Z,80.37
2018-07-05T04:16:04.536Z,80.32
2018-07-05T04:18:44.655Z,81.15
2018-07-05T04:21:24.735Z,80.87
2018-07-05T04:24:04.958Z,79.98
2018-07-05T04:26:44.900Z,80.15
2018-07-05T04:29:24.772Z,79.73
2018-07-05T04:32:04.761Z,78.22
2018-07-05T04:34:44.766Z,77.78
2018-07-05T04:37:25.423Z,78.80
2018-07-05T04:40:05.518Z,79.16
2018-07-05T04:42:45.586Z,78.89
2018-07-05T04:45:25.649Z,78.35
2018-07-05T04:48:05.671Z,77.34
2018-07-05T04:50:45.801Z,78.16
2018-07-05T04:53:25.935Z,78.27
2018-07-05T04:56:05.957Z,77.77
2018-07-05T04:58:45.909Z,77.84
2018-07-05T05:01:25.888Z,77.53
2018-07-05T05:04:05.831Z,76.87
2018-07-05T05:06:45.895Z,76.82
2018-07-05T05:09:25.847Z,76.16
2018-07-05T05:12:05.906Z,75.83
2018-07-05T05:14:46.003Z,75.82
2018-07-05T05:17:26.036Z,75.27
2018-07-05T05:20:06.049Z,75.75
2018-07-05T05:22:46.092Z,75.70
2018-07-05T05:25:26.037Z,75.87
2018-07-05T05:28:06.270Z,75.58
2018-07-05T05:30:46.148Z,74.43
2018-07-05T05:33:26.243Z,74.26
2018-07-05T05:36:06.266Z,74.40
2018-07-05T05:38:46.294Z,73.94
2018-07-05T05:41:26.346Z,73.88
2018-07-05T05:44:06.267Z,73.70
2018-07-05T05:46:46.142Z,74.39
2018-07-05T05:49:26.161Z,74.29
2018-07-05T05:52:06.133Z,73.25
2018-07-05T05:54:46.083Z,72.81
2018-07-05T05:57:26.064Z,73.04
2018-07-05T06:00:06.328Z,73.78
2018-07-05T06:02:46.403Z,73.37
2018-07-05T06:05:26.506Z,73.43
2018-07-05T06:08:06.551Z,73.68
2018-07-05T06:10:46.466Z,74.14
2018-07-05T06:13:26.380Z,74.01
2018-07-05T06:16:06.261Z,73.49
2018-07-05T06:18:46.272Z,73.80
2018-07-05T06:21:26.441Z,73.72
2018-07-05T06:24:06.316Z,73.40
2018-07-05T06:26:46.375Z,73.36
2018-07-05T06:29:26.359Z,73.69
2018-07-05T06:32:06.439Z,73.81
2018-07-05T06:34:47.128Z,73.32
2018-07-05T06:37:27.271Z,73.11
2018-07-05T06:40:07.509Z,73.47
2018-07-05T06:42:47.644Z,74.07
2018-07-05T06:45:27.667Z,75.61
2018-07-05T06:48:07.936Z,73.98
2018-07-05T06:50:48.013Z,73.40
2018-07-05T06:53:28.107Z,73.49
2018-07-05T06:56:08.317Z,73.36
2018-07-05T06:58:48.352Z,73.85
2018-07-05T07:01:28.416Z,73.81
2018-07-05T07:04:08.709Z,73.48
2018-07-05T07:06:48.844Z,73.42
2018-07-05T07:09:29.052Z,73.52
2018-07-05T07:12:09.105Z,73.10
2018-07-05T07:14:49.212Z,73.36
2018-07-05T07:17:29.316Z,73.09
2018-07-05T07:20:09.265Z,73.06
2018-07-05T07:22:49.264Z,73.17
2018-07-05T07:25:29.293Z,72.66
2018-07-05T07:28:09.360Z,72.40
2018-07-05T07:30:49.281Z,72.27
2018-07-05T07:33:29.272Z,71.97
2018-07-05T07:36:09.295Z,71.04
2018-07-05T07:38:49.575Z,70.56
2018-07-05T07:41:29.672Z,70.88
2018-07-05T07:43:57.458Z,71.01
2018-07-05T07:46:25.198Z,70.67
2018-07-05T07:48:52.967Z,70.21
2018-07-05T07:51:21.191Z,70.12
2018-07-05T07:53:48.815Z,70.17
2018-07-05T07:56:16.567Z,69.84
2018-07-05T07:58:45.237Z,69.32
2018-07-05T08:01:12.947Z,69.18
2018-07-05T08:03:41.240Z,69.70
2018-07-05T08:06:09.418Z,69.51
2018-07-05T08:08:37.110Z,69.39
2018-07-05T08:11:04.776Z,69.57
2018-07-05T08:13:32.505Z,69.66
2018-07-05T08:16:00.248Z,69.66
2018-07-05T08:18:27.913Z,68.95
2018-07-05T08:20:55.622Z,68.79
2018-07-05T08:23:23.952Z,68.30
2018-07-05T08:25:51.671Z,68.44
2018-07-05T08:28:19.429Z,68.29
2018-07-05T08:30:47.260Z,68.79
2018-07-05T08:33:15.423Z,68.36
2018-07-05T08:35:43.187Z,68.43
2018-07-05T08:38:10.912Z,68.80
2018-07-05T08:40:38.617Z,68.92
2018-07-05T08:43:06.308Z,69.46
2018-07-05T08:45:34.078Z,68.60
2018-07-05T08:48:01.979Z,68.45
2018-07-05T08:50:29.725Z,69.10
2018-07-05T08:52:57.715Z,68.42
2018-07-05T08:55:27.464Z,68.27
2018-07-05T08:57:55.187Z,68.94
2018-07-05T09:00:22.862Z,69.04
2018-07-05T09:02:50.648Z,68.36
2018-07-05T09:05:19.153Z,68.21
2018-07-05T09:07:46.756Z,68.46
2018-07-05T09:10:14.495Z,67.66
2018-07-05T09:12:42.195Z,67.66
2018-07-05T09:15:09.928Z,67.35
2018-07-05T09:17:37.692Z,67.12
2018-07-05T09:20:05.815Z,66.64
2018-07-05T09:22:34.809Z,66.90
2018-07-05T09:25:02.600Z,67.24
2018-07-05T09:27:30.373Z,67.60
2018-07-05T09:29:58.082Z,68.34
2018-07-05T09:32:25.827Z,68.07
2018-07-05T09:34:53.555Z,68.14
2018-07-05T09:37:21.301Z,68.38
2018-07-05T09:39:49.004Z,68.45
2018-07-05T09:42:16.792Z,68.43
2018-07-05T09:44:44.579Z,68.42
2018-07-05T09:47:12.331Z,68.76
2018-07-05T09:49:40.137Z,68.29
2018-07-05T09:52:07.951Z,68.07
2018-07-05T09:54:35.612Z,68.08
2018-07-05T09:57:03.352Z,68.68
2018-07-05T09:59:31.040Z,68.04
2018-07-05T10:01:58.768Z,67.76
2018-07-05T10:04:26.441Z,67.64
2018-07-05T10:06:54.253Z,67.87
2018-07-05T10:09:21.952Z,67.47
2018-07-05T10:11:49.673Z,67.65
2018-07-05T10:14:17.360Z,67.58
2018-07-05T10:16:45.100Z,67.86
2018-07-05T10:19:12.927Z,67.87
2018-07-05T10:21:40.659Z,68.22
2018-07-05T10:24:08.387Z,67.66
2018-07-05T10:26:36.152Z,67.96
2018-07-05T10:29:16.451Z,67.80
2018-07-05T10:31:56.456Z,68.08
2018-07-05T10:34:24.199Z,68.04
2018-07-05T10:36:51.885Z,67.76
2018-07-05T10:39:20.192Z,67.58
2018-07-05T10:42:00.252Z,67.67
2018-07-05T10:44:40.268Z,67.44
2018-07-05T10:47:20.687Z,67.37
2018-07-05T10:50:00.757Z,67.40
2018-07-05T10:52:40.763Z,67.06
2018-07-05T10:55:21.177Z,67.24
2018-07-05T10:58:01.605Z,67.52
2018-07-05T11:00:41.757Z,67.64
2018-07-05T11:03:21.889Z,67.90
2018-07-05T11:06:02.011Z,67.83
2018-07-05T11:08:42.023Z,67.33
2018-07-05T11:11:21.980Z,67.88
2018-07-05T11:14:01.946Z,67.25
2018-07-05T11:16:41.970Z,67.01
2018-07-05T11:19:22.000Z,67.44
2018-07-05T11:22:02.073Z,67.98
2018-07-05T11:24:42.087Z,67.65
2018-07-05T11:27:22.249Z,67.35
2018-07-05T11:30:02.154Z,67.66
2018-07-05T11:32:42.311Z,67.24
2018-07-05T11:35:23.227Z,66.93
2018-07-05T11:38:03.396Z,67.41
2018-07-05T11:40:43.796Z,67.12
2018-07-05T11:43:23.850Z,67.19
2018-07-05T11:46:03.927Z,67.01
2018-07-05T11:48:44.223Z,67.83
2018-07-05T11:51:24.377Z,68.00
2018-07-05T11:54:04.340Z,68.19
2018-07-05T11:56:44.410Z,68.02
2018-07-05T11:59:24.494Z,69.23
2018-07-05T12:02:04.417Z,69.45
2018-07-05T12:04:44.432Z,70.41
2018-07-05T12:07:24.369Z,70.80
2018-07-05T12:10:04.411Z,69.70
2018-07-05T12:12:44.650Z,69.94
2018-07-05T12:15:24.656Z,70.78
2018-07-05T12:18:05.029Z,70.53
2018-07-05T12:20:45.077Z,70.10
2018-07-05T12:23:25.072Z,69.50
2018-07-05T12:26:05.174Z,69.57
2018-07-05T12:28:45.340Z,69.76
2018-07-05T12:31:25.427Z,69.81
2018-07-05T12:34:05.432Z,70.09
2018-07-05T12:36:45.394Z,69.73
2018-07-05T12:39:25.444Z,69.49
2018-07-05T12:42:05.574Z,68.74
2018-07-05T12:44:45.530Z,68.73
2018-07-05T12:47:25.540Z,68.96
2018-07-05T12:50:05.493Z,69.28
2018-07-05T14:08:55.028Z,64.57
2018-07-05T14:11:34.879Z,64.87
2018-07-05T14:14:14.895Z,64.21
2018-07-05T14:16:54.864Z,63.84
2018-07-05T14:19:34.795Z,63.09
2018-07-05T14:22:15.326Z,63.09
2018-07-05T14:24:55.487Z,63.23
2018-07-05T14:27:35.725Z,62.58
2018-07-05T14:30:15.747Z,63.23
2018-07-05T14:32:55.659Z,62.46
2018-07-05T14:35:35.652Z,63.07
2018-07-05T14:38:15.779Z,63.20
2018-07-05T14:40:55.918Z,62.87
2018-07-05T14:43:36.008Z,62.73
2018-07-05T14:46:15.943Z,62.37
2018-07-05T14:48:55.874Z,63.19
2018-07-05T14:51:35.802Z,62.35
2018-07-05T14:54:15.626Z,62.69
2018-07-05T14:56:55.743Z,62.61
2018-07-05T14:59:36.244Z,62.49
2018-07-05T15:02:16.278Z,63.50
2018-07-05T15:04:56.226Z,64.17
2018-07-05T15:07:36.222Z,65.51
2018-07-05T15:10:16.163Z,66.84
2018-07-05T15:12:56.140Z,66.90
2018-07-05T15:15:36.133Z,67.58
2018-07-05T15:18:16.137Z,67.25
2018-07-05T15:20:56.133Z,67.87
2018-07-05T15:23:36.247Z,68.16
2018-07-05T15:26:16.383Z,67.06
2018-07-05T15:28:56.388Z,67.00
2018-07-05T15:31:36.234Z,66.94
2018-07-05T15:34:16.393Z,67.07
2018-07-05T15:36:56.427Z,67.19
2018-07-05T15:39:36.954Z,67.08
2018-07-05T15:42:16.880Z,67.47
2018-07-05T15:44:56.827Z,67.21
2018-07-05T15:47:36.880Z,67.59
2018-07-05T15:50:16.797Z,67.59
2018-07-05T15:52:56.757Z,68.06
2018-07-05T15:55:36.911Z,68.57
2018-07-05T15:58:16.979Z,68.57
2018-07-05T16:00:56.966Z,68.33
2018-07-05T16:03:36.860Z,68.02
2018-07-05T16:06:16.843Z,67.21
2018-07-05T16:08:56.815Z,67.59
2018-07-05T16:11:36.647Z,67.18
2018-07-05T16:14:16.695Z,67.04
2018-07-05T16:16:56.636Z,66.72
2018-07-05T16:19:36.685Z,65.67
2018-07-05T16:22:16.635Z,65.33
2018-07-05T16:24:56.735Z,65.37
2018-07-05T16:27:36.928Z,65.72
2018-07-05T16:30:16.894Z,66.19
2018-07-05T16:32:57.383Z,67.23
2018-07-05T16:35:37.347Z,68.34
2018-07-05T16:38:17.588Z,68.44
2018-07-05T16:40:57.571Z,68.60
2018-07-05T16:43:37.765Z,68.56
2018-07-05T16:46:17.716Z,68.31
2018-07-05T16:48:57.705Z,68.07
2018-07-05T16:51:37.660Z,67.88
2018-07-05T16:54:17.720Z,68.35
2018-07-05T16:56:57.778Z,68.02
2018-07-05T16:59:37.745Z,67.48
2018-07-05T17:02:17.765Z,67.73
2018-07-05T17:04:57.808Z,68.50
2018-07-05T17:07:37.929Z,68.27
2018-07-05T17:10:17.963Z,69.17
2018-07-05T17:12:58.192Z,69.28
2018-07-05T17:19:19.613Z,69.33
2018-07-05T17:21:59.992Z,69.21
2018-07-05T17:24:40.294Z,69.32
2018-07-05T17:27:20.528Z,69.21
2018-07-05T17:30:00.658Z,69.63
2018-07-05T17:32:41.555Z,69.95
2018-07-05T17:35:21.839Z,70.18
2018-07-05T17:38:02.115Z,70.05
2018-07-05T17:40:42.753Z,69.86
2018-07-05T17:43:22.846Z,69.88
2018-07-05T17:46:03.319Z,69.84
2018-07-05T17:48:43.540Z,69.41
2018-07-05T17:51:23.859Z,68.86
2018-07-05T17:54:04.270Z,70.12
2018-07-05T17:56:44.474Z,69.27
2018-07-05T17:59:24.574Z,68.29
2018-07-05T18:02:05.595Z,67.51
2018-07-05T18:04:45.636Z,68.17
2018-07-05T18:07:25.560Z,67.55
2018-07-05T18:10:05.590Z,66.71
2018-07-05T18:12:45.780Z,67.21
2018-07-05T18:15:25.889Z,67.60
2018-07-05T18:18:06.067Z,66.91
2018-07-05T18:20:46.161Z,68.05
2018-07-05T18:23:26.297Z,67.96
2018-07-05T18:26:06.418Z,67.93
2018-07-05T18:28:46.428Z,67.57
2018-07-05T18:31:26.478Z,67.47
2018-07-05T18:34:06.602Z,67.47
2018-07-05T18:36:46.748Z,67.66
2018-07-05T18:39:26.875Z,67.09
2018-07-05T20:04:17.267Z,70.13
2018-07-05T20:06:57.507Z,69.78
2018-07-05T20:09:37.461Z,68.92
2018-07-05T20:12:17.650Z,68.95
2018-07-05T20:14:57.614Z,68.50
2018-07-05T20:17:38.628Z,68.29
2018-07-05T20:20:18.752Z,67.87
2018-07-05T20:22:58.632Z,67.86
2018-07-05T20:25:38.644Z,67.81
2018-07-05T20:28:18.680Z,67.46
2018-07-05T20:30:58.722Z,66.93
2018-07-05T20:33:38.727Z,66.67
2018-07-05T20:36:18.743Z,66.48
2018-07-05T20:38:58.720Z,66.15
2018-07-05T20:41:38.833Z,65.61
2018-07-05T20:44:18.985Z,65.09
2018-07-05T20:46:58.945Z,65.75
2018-07-05T20:49:38.909Z,65.27
2018-07-05T20:52:20.428Z,65.10
2018-07-05T20:55:01.016Z,64.91
2018-07-05T20:57:41.078Z,65.13
2018-07-05T21:00:21.176Z,65.44
2018-07-05T21:03:01.101Z,65.51
2018-07-05T21:05:41.083Z,65.35
2018-07-05T21:08:21.680Z,65.59
2018-07-05T21:11:01.660Z,66.07
2018-07-05T21:13:41.715Z,66.10
2018-07-05T21:16:21.683Z,66.98
2018-07-05T21:19:01.643Z,67.44
2018-07-05T21:21:41.698Z,67.99
2018-07-05T21:24:21.746Z,68.12
2018-07-05T21:27:01.799Z,68.47
2018-07-05T21:29:41.891Z,68.34
2018-07-05T21:32:22.137Z,69.05
2018-07-05T21:35:02.408Z,69.67
2018-07-05T21:37:42.731Z,69.94
2018-07-05T21:40:23.059Z,69.97
2018-07-05T21:43:02.974Z,70.07
2018-07-05T21:45:42.976Z,70.83
2018-07-05T21:48:23.386Z,70.59
2018-07-05T21:51:03.587Z,70.23
2018-07-05T21:53:43.637Z,70.63
2018-07-05T21:56:23.649Z,69.92
2018-07-05T21:59:03.639Z,69.53
2018-07-05T22:01:43.931Z,69.84
2018-07-05T22:04:24.063Z,70.00
2018-07-05T22:07:04.683Z,70.49
2018-07-05T22:09:44.722Z,70.55
2018-07-05T22:12:24.832Z,71.35
2018-07-05T22:15:04.844Z,70.80
2018-07-05T22:17:50.384Z,71.37
2018-07-05T22:20:35.971Z,71.95
2018-07-05T22:23:21.416Z,72.47
2018-07-05T22:27:10.864Z,72.68
2018-07-05T22:29:56.798Z,72.99
2018-07-05T22:32:36.739Z,72.95
2018-07-05T22:35:16.971Z,73.04
2018-07-05T22:37:57.032Z,73.09
2018-07-05T22:40:37.207Z,73.44
2018-07-05T22:43:17.314Z,73.02
2018-07-05T22:45:57.364Z,72.91
2018-07-05T22:48:37.491Z,72.85
2018-07-05T22:51:17.642Z,72.76
2018-07-05T22:53:57.646Z,72.87
2018-07-05T22:56:38.018Z,73.03
2018-07-05T22:59:18.191Z,73.46
2018-07-05T23:01:58.173Z,72.88
2018-07-05T23:04:38.176Z,72.75
2018-07-05T23:07:18.316Z,72.41
2018-07-05T23:09:58.463Z,71.94
2018-07-05T23:12:38.525Z,72.62
2018-07-05T23:15:18.604Z,71.46
2018-07-05T23:17:58.756Z,71.20
2018-07-05T23:20:38.677Z,70.99
2018-07-05T23:23:18.644Z,71.07
2018-07-05T23:25:58.750Z,71.06
2018-07-05T23:28:38.948Z,71.37
2018-07-05T23:31:19.157Z,72.02
2018-07-05T23:33:59.278Z,73.02
2018-07-05T23:36:39.538Z,74.39
2018-07-05T23:39:19.556Z,76.00
2018-07-05T23:41:59.347Z,77.03
2018-07-05T23:44:39.443Z,77.27
2018-07-05T23:47:19.762Z,77.32
2018-07-05T23:49:59.871Z,77.30
2018-07-05T23:52:39.930Z,76.69
2018-07-05T23:55:20.071Z,76.48
2018-07-05T23:58:00.068Z,76.81
